Time;durP1;ratioP1;P1;durP2;ratioP2;P2;SDS_P1;SDS_P2;PMS_P1;PMS_P2;Temp;Humidity;BMP_temperature;BMP_pressure;BME280_temperature;BME280_humidity;BME280_pressure;Samples;Min_cycle;Max_cycle;Signal;HPM_P1;HPM_P2
2022/07/09 00:02:15;;;;;;;;;;;11.40;99.90;;;;;;5013598;28;19916;-72
2022/07/09 00:04:41;;;;;;;;;;;11.40;99.90;;;;;;5013680;28;19944;-73
2022/07/09 00:07:08;;;;;;;;;;;11.40;99.90;;;;;;5013561;28;19949;-73
2022/07/09 00:09:35;;;;;;;;;;;11.50;99.90;;;;;;5011440;28;19945;-73
2022/07/09 00:12:02;;;;;;;;;;;11.60;99.90;;;;;;5003008;28;19967;-72
2022/07/09 00:14:29;;;;;;;;;;;11.60;99.90;;;;;;4992985;28;19910;-72
2022/07/09 00:16:56;;;;;;;;;;;11.70;99.90;;;;;;4992690;28;19910;-72
2022/07/09 00:19:22;;;;;;;;;;;11.70;99.90;;;;;;4992050;28;19925;-73
2022/07/09 00:21:49;;;;;;;;;;;11.70;99.90;;;;;;4992743;28;19952;-75
2022/07/09 00:24:16;;;;;;;;;;;11.80;99.90;;;;;;4992752;28;19910;-72
2022/07/09 00:26:43;;;;;;;;;;;11.80;99.90;;;;;;4992690;28;20001;-72
2022/07/09 00:29:09;;;;;;;;;;;11.80;99.90;;;;;;4990542;28;19925;-72
2022/07/09 00:31:36;;;;;;;;;;;11.80;99.90;;;;;;4992638;28;19953;-71
2022/07/09 00:34:03;;;;;;;;;;;11.90;99.90;;;;;;4990968;28;20000;-72
2022/07/09 00:36:29;;;;;;;;;;;12.00;99.90;;;;;;4991973;28;20117;-72
2022/07/09 00:38:56;;;;;;;;;;;12.00;99.90;;;;;;4990934;28;19917;-73
2022/07/09 00:41:23;;;;;;;;;;;12.10;99.90;;;;;;4991134;28;19914;-73
2022/07/09 00:43:50;;;;;;;;;;;12.10;99.90;;;;;;4990869;28;19914;-73
2022/07/09 00:46:17;;;;;;;;;;;12.30;99.90;;;;;;4990014;28;19910;-74
2022/07/09 00:48:44;;;;;;;;;;;12.30;99.90;;;;;;4992208;28;19925;-72
2022/07/09 00:51:12;;;;;;;;;;;12.30;99.90;;;;;;4992258;28;20287;-72
2022/07/09 00:53:39;;;;;;;;;;;12.40;99.90;;;;;;4992624;28;19920;-73
2022/07/09 00:56:06;;;;;;;;;;;12.40;99.90;;;;;;4992523;28;20356;-72
2022/07/09 00:58:35;;;;;;;;;;;12.50;99.90;;;;;;4992595;28;19929;-73
2022/07/09 01:01:02;;;;;;;;;;;12.50;99.90;;;;;;4992418;28;19910;-74
2022/07/09 01:03:29;;;;;;;;;;;12.70;99.90;;;;;;4991962;28;19910;-74
2022/07/09 01:05:56;;;;;;;;;;;12.90;99.90;;;;;;4992408;28;19922;-73
2022/07/09 01:08:23;;;;;;;;;;;13.00;99.90;;;;;;4992282;28;19918;-73
2022/07/09 01:10:51;;;;;;;;;;;13.30;99.90;;;;;;4992271;28;19934;-73
2022/07/09 01:13:18;;;;;;;;;;;13.60;99.90;;;;;;4992131;28;20275;-73
2022/07/09 01:15:44;;;;;;;;;;;13.60;99.90;;;;;;4992166;28;19910;-72
2022/07/09 01:18:12;;;;;;;;;;;13.70;99.90;;;;;;4992174;28;19910;-73
2022/07/09 01:20:39;;;;;;;;;;;13.80;99.90;;;;;;4992350;28;19910;-73
2022/07/09 01:23:05;;;;;;;;;;;13.80;99.90;;;;;;4992012;28;19914;-73
2022/07/09 01:25:35;;;;;;;;;;;13.90;99.90;;;;;;4992257;28;19922;-73
2022/07/09 01:28:05;;;;;;;;;;;14.00;99.90;;;;;;4992160;28;19988;-73
2022/07/09 01:30:32;;;;;;;;;;;13.90;99.90;;;;;;4993722;28;19972;-73
2022/07/09 01:33:00;;;;;;;;;;;13.70;99.90;;;;;;4995383;28;19910;-73
2022/07/09 01:35:27;;;;;;;;;;;13.60;99.90;;;;;;4995668;28;19916;-74
2022/07/09 01:37:53;;;;;;;;;;;13.50;99.90;;;;;;4995678;28;19909;-74
2022/07/09 01:40:20;;;;;;;;;;;13.50;99.90;;;;;;4995576;28;20059;-73
2022/07/09 01:42:47;;;;;;;;;;;13.50;99.90;;;;;;4995679;28;20387;-74
2022/07/09 01:45:15;;;;;;;;;;;13.50;99.90;;;;;;4995485;28;20355;-74
2022/07/09 01:47:42;;;;;;;;;;;13.60;99.90;;;;;;4995405;28;19921;-75
2022/07/09 01:50:09;;;;;;;;;;;13.60;99.90;;;;;;4995517;28;19960;-74
2022/07/09 01:52:36;;;;;;;;;;;13.70;99.90;;;;;;4995328;28;20378;-73
2022/07/09 01:55:03;;;;;;;;;;;13.60;99.90;;;;;;4995208;28;20001;-74
2022/07/09 01:57:30;;;;;;;;;;;13.60;99.90;;;;;;4995200;28;19921;-73
2022/07/09 01:59:56;;;;;;;;;;;13.60;99.90;;;;;;4995117;28;20256;-74
2022/07/09 02:02:23;;;;;;;;;;;13.70;99.90;;;;;;4995157;28;19914;-73
2022/07/09 02:04:50;;;;;;;;;;;13.70;99.90;;;;;;4994924;28;20426;-73
2022/07/09 02:07:17;;;;;;;;;;;13.80;99.90;;;;;;4995030;28;19922;-73
2022/07/09 02:09:43;;;;;;;;;;;13.70;99.90;;;;;;4994942;28;19961;-73
2022/07/09 02:12:10;;;;;;;;;;;13.70;99.90;;;;;;4994991;28;20324;-73
2022/07/09 02:14:37;;;;;;;;;;;13.60;99.90;;;;;;4996579;28;19918;-73
2022/07/09 02:17:05;;;;;;;;;;;13.70;99.90;;;;;;5014089;28;19910;-73
2022/07/09 02:19:31;;;;;;;;;;;13.70;99.90;;;;;;5013241;28;20379;-72
2022/07/09 02:21:58;;;;;;;;;;;13.80;99.90;;;;;;5014358;28;20279;-73
2022/07/09 02:24:25;;;;;;;;;;;13.90;99.90;;;;;;5014362;28;19909;-74
2022/07/09 02:26:51;;;;;;;;;;;13.80;99.90;;;;;;5014464;28;19917;-72
2022/07/09 02:29:18;;;;;;;;;;;13.80;99.90;;;;;;5014279;28;19917;-73
2022/07/09 02:31:45;;;;;;;;;;;13.80;99.90;;;;;;5014107;28;19916;-72
2022/07/09 02:34:12;;;;;;;;;;;13.90;99.90;;;;;;5014285;28;19910;-73
2022/07/09 02:36:38;;;;;;;;;;;13.90;99.90;;;;;;4996572;28;20332;-73
2022/07/09 02:39:05;;;;;;;;;;;13.90;99.90;;;;;;5013902;28;19913;-73
2022/07/09 02:41:32;;;;;;;;;;;13.90;99.90;;;;;;5013218;28;19910;-72
2022/07/09 02:43:58;;;;;;;;;;;13.90;99.90;;;;;;5014125;28;20364;-72
2022/07/09 02:46:25;;;;;;;;;;;14.00;99.90;;;;;;5013871;28;19910;-73
2022/07/09 02:48:52;;;;;;;;;;;14.00;99.90;;;;;;5013767;28;20016;-73
2022/07/09 02:51:19;;;;;;;;;;;14.00;99.90;;;;;;5013903;28;19972;-74
2022/07/09 02:53:45;;;;;;;;;;;14.00;99.90;;;;;;5013733;28;20328;-73
2022/07/09 02:56:12;;;;;;;;;;;14.20;99.90;;;;;;5013375;28;19913;-74
2022/07/09 02:58:40;;;;;;;;;;;14.20;99.90;;;;;;5013693;28;19913;-73
2022/07/09 03:01:09;;;;;;;;;;;14.30;99.90;;;;;;5013244;28;20474;-74
2022/07/09 03:03:36;;;;;;;;;;;14.30;99.90;;;;;;5013426;28;19960;-73
2022/07/09 03:06:07;;;;;;;;;;;14.30;99.90;;;;;;5013619;28;19914;-72
2022/07/09 03:08:34;;;;;;;;;;;14.30;99.90;;;;;;5013358;28;19965;-72
2022/07/09 03:11:01;;;;;;;;;;;14.30;99.90;;;;;;5013332;28;20016;-73
2022/07/09 03:13:28;;;;;;;;;;;14.30;99.90;;;;;;5013710;28;19960;-73
2022/07/09 03:15:54;;;;;;;;;;;14.30;99.90;;;;;;4995912;28;20378;-73
2022/07/09 03:18:21;;;;;;;;;;;14.20;99.90;;;;;;5013318;28;20008;-74
2022/07/09 03:20:48;;;;;;;;;;;14.30;99.90;;;;;;5013411;28;20008;-73
2022/07/09 03:23:15;;;;;;;;;;;14.30;99.90;;;;;;5013074;28;19917;-73
2022/07/09 03:25:42;;;;;;;;;;;14.40;99.90;;;;;;5013174;28;20284;-73
2022/07/09 03:28:10;;;;;;;;;;;14.40;99.90;;;;;;5013060;28;19920;-73
2022/07/09 03:30:36;;;;;;;;;;;14.40;99.90;;;;;;5013374;28;20378;-73
2022/07/09 03:33:03;;;;;;;;;;;14.50;99.90;;;;;;5013133;28;19909;-73
2022/07/09 03:35:30;;;;;;;;;;;14.50;99.90;;;;;;5013152;28;20276;-72
2022/07/09 03:37:57;;;;;;;;;;;14.50;99.90;;;;;;5013002;28;19909;-73
2022/07/09 03:40:23;;;;;;;;;;;14.50;99.90;;;;;;5012936;28;20486;-74
2022/07/09 03:42:50;;;;;;;;;;;14.60;99.90;;;;;;5013111;28;20000;-73
2022/07/09 03:45:17;;;;;;;;;;;14.60;99.90;;;;;;5013041;28;19985;-72
2022/07/09 03:47:44;;;;;;;;;;;14.60;99.90;;;;;;5012952;28;19957;-73
2022/07/09 03:50:11;;;;;;;;;;;14.60;99.90;;;;;;5012844;28;19913;-73
2022/07/09 03:52:38;;;;;;;;;;;14.60;99.90;;;;;;5012579;28;19916;-74
2022/07/09 03:55:05;;;;;;;;;;;14.60;99.90;;;;;;5012168;28;20280;-74
2022/07/09 03:57:32;;;;;;;;;;;14.70;99.90;;;;;;5012888;28;19910;-74
2022/07/09 03:59:59;;;;;;;;;;;14.60;99.90;;;;;;5012824;28;19914;-73
2022/07/09 04:02:25;;;;;;;;;;;14.60;99.90;;;;;;5012531;28;19909;-73
2022/07/09 04:04:56;;;;;;;;;;;14.60;99.90;;;;;;5012288;28;20036;-74
2022/07/09 04:07:26;;;;;;;;;;;14.60;99.90;;;;;;5012502;28;20275;-74
2022/07/09 04:09:53;;;;;;;;;;;14.60;99.90;;;;;;5012644;28;20308;-73
2022/07/09 04:12:20;;;;;;;;;;;14.60;99.90;;;;;;5012494;28;20431;-73
2022/07/09 04:14:47;;;;;;;;;;;14.60;99.90;;;;;;5012667;28;19954;-74
2022/07/09 04:17:14;;;;;;;;;;;14.60;99.90;;;;;;5012216;28;19917;-74
2022/07/09 04:19:40;;;;;;;;;;;14.60;99.90;;;;;;5012427;28;19913;-74
2022/07/09 04:22:10;;;;;;;;;;;14.60;99.90;;;;;;5012457;28;19916;-73
2022/07/09 04:24:36;;;;;;;;;;;14.50;99.90;;;;;;5012323;28;19910;-73
2022/07/09 04:27:03;;;;;;;;;;;14.50;99.90;;;;;;5012310;28;20394;-73
2022/07/09 04:29:30;;;;;;;;;;;14.60;99.90;;;;;;5012545;28;19921;-73
2022/07/09 04:31:56;;;;;;;;;;;14.70;99.90;;;;;;5012214;28;19909;-74
2022/07/09 04:34:23;;;;;;;;;;;14.60;99.90;;;;;;5012355;28;19910;-75
2022/07/09 04:36:50;;;;;;;;;;;14.60;99.90;;;;;;5012417;28;20406;-74
2022/07/09 04:39:17;;;;;;;;;;;14.70;99.90;;;;;;5012213;28;19948;-74
2022/07/09 04:41:43;;;;;;;;;;;14.80;99.90;;;;;;5012607;28;19909;-75
2022/07/09 04:44:15;;;;;;;;;;;14.80;99.90;;;;;;5012343;28;19917;-75
2022/07/09 04:46:43;;;;;;;;;;;14.90;99.90;;;;;;5012277;28;19916;-74
2022/07/09 04:49:10;;;;;;;;;;;15.00;99.90;;;;;;5011961;28;19964;-74
2022/07/09 04:51:37;;;;;;;;;;;15.00;99.90;;;;;;5012014;28;19910;-74
2022/07/09 04:54:03;;;;;;;;;;;14.90;99.90;;;;;;5011915;28;19920;-75
2022/07/09 04:56:30;;;;;;;;;;;14.90;99.90;;;;;;5012126;28;19956;-74
2022/07/09 04:58:59;;;;;;;;;;;14.90;99.90;;;;;;5011930;28;20012;-74
2022/07/09 05:01:26;;;;;;;;;;;14.90;99.90;;;;;;5011782;28;19910;-73
2022/07/09 05:03:53;;;;;;;;;;;14.80;99.90;;;;;;5011856;28;19914;-74
2022/07/09 05:06:19;;;;;;;;;;;14.70;99.90;;;;;;5015199;28;20382;-75
2022/07/09 05:08:47;;;;;;;;;;;14.60;99.90;;;;;;5015753;28;19928;-74
2022/07/09 05:11:14;;;;;;;;;;;14.50;99.90;;;;;;5015576;28;20331;-74
2022/07/09 05:13:41;;;;;;;;;;;14.40;99.90;;;;;;5015890;28;20344;-73
2022/07/09 05:16:08;;;;;;;;;;;14.40;99.90;;;;;;5015725;28;19917;-74
2022/07/09 05:18:36;;;;;;;;;;;14.30;99.90;;;;;;5015737;28;19917;-74
2022/07/09 05:21:03;;;;;;;;;;;14.20;99.90;;;;;;5015700;28;19909;-74
2022/07/09 05:23:30;;;;;;;;;;;14.20;99.90;;;;;;5015774;28;19913;-73
2022/07/09 05:25:56;;;;;;;;;;;14.20;99.90;;;;;;5015921;28;19914;-73
2022/07/09 05:28:24;;;;;;;;;;;14.10;99.90;;;;;;5015493;28;20367;-75
2022/07/09 05:30:50;;;;;;;;;;;14.10;99.90;;;;;;5015391;28;19967;-74
2022/07/09 05:33:17;;;;;;;;;;;14.20;99.90;;;;;;5015535;28;19944;-73
2022/07/09 05:35:44;;;;;;;;;;;14.20;99.90;;;;;;5015270;28;19909;-74
2022/07/09 05:38:10;;;;;;;;;;;14.10;99.90;;;;;;5015302;28;19919;-73
2022/07/09 05:40:37;;;;;;;;;;;14.20;99.90;;;;;;5015527;28;19933;-73
2022/07/09 05:43:04;;;;;;;;;;;14.20;99.90;;;;;;5014147;28;20264;-74
2022/07/09 05:45:31;;;;;;;;;;;14.20;99.90;;;;;;5015092;28;19913;-74
2022/07/09 05:47:58;;;;;;;;;;;14.20;99.90;;;;;;5015715;28;19914;-75
2022/07/09 05:50:28;;;;;;;;;;;14.10;99.90;;;;;;5015323;28;19909;-74
2022/07/09 05:52:54;;;;;;;;;;;14.10;99.90;;;;;;5014997;28;19909;-73
2022/07/09 05:55:24;;;;;;;;;;;14.00;99.90;;;;;;5015140;28;20272;-73
2022/07/09 05:57:51;;;;;;;;;;;14.00;99.90;;;;;;4997291;28;19961;-73
2022/07/09 06:00:18;;;;;;;;;;;14.00;99.90;;;;;;5014707;28;20318;-75
2022/07/09 06:02:44;;;;;;;;;;;13.90;99.90;;;;;;5015020;28;19909;-74
2022/07/09 06:05:11;;;;;;;;;;;13.90;99.90;;;;;;5014338;28;19925;-74
2022/07/09 06:07:44;;;;;;;;;;;13.90;99.90;;;;;;5015048;28;20376;-73
2022/07/09 06:10:13;;;;;;;;;;;13.80;99.90;;;;;;5015597;28;19929;-75
2022/07/09 06:12:41;;;;;;;;;;;13.80;99.90;;;;;;5015692;28;19957;-74
2022/07/09 06:15:09;;;;;;;;;;;13.80;99.90;;;;;;5015380;28;20374;-74
2022/07/09 06:17:36;;;;;;;;;;;13.70;99.90;;;;;;5014310;28;19956;-73
2022/07/09 06:20:03;;;;;;;;;;;13.70;99.90;;;;;;5015368;28;20275;-73
2022/07/09 06:22:30;;;;;;;;;;;13.70;99.90;;;;;;5015469;28;19935;-73
2022/07/09 06:24:57;;;;;;;;;;;13.70;99.90;;;;;;5014968;28;20016;-73
2022/07/09 06:27:24;;;;;;;;;;;13.80;99.90;;;;;;5015132;28;19913;-74
2022/07/09 06:29:51;;;;;;;;;;;13.80;99.90;;;;;;5014998;28;19920;-74
2022/07/09 06:32:17;;;;;;;;;;;13.70;99.90;;;;;;5014993;28;19909;-74
2022/07/09 06:34:44;;;;;;;;;;;13.70;99.90;;;;;;5015068;28;19909;-74
2022/07/09 06:37:11;;;;;;;;;;;13.70;99.90;;;;;;5014699;28;19909;-74
2022/07/09 06:39:48;;;;;;;;;;;13.70;99.90;;;;;;5014544;28;20379;-74
2022/07/09 06:42:16;;;;;;;;;;;13.70;99.90;;;;;;5014193;28;19913;-73
2022/07/09 06:44:43;;;;;;;;;;;13.70;99.90;;;;;;5014341;28;19949;-74
2022/07/09 06:47:10;;;;;;;;;;;13.80;99.90;;;;;;5013837;28;20071;-74
2022/07/09 06:49:37;;;;;;;;;;;13.80;99.90;;;;;;5013721;28;20263;-74
2022/07/09 06:52:04;;;;;;;;;;;13.70;99.90;;;;;;5012872;28;19909;-74
2022/07/09 06:54:31;;;;;;;;;;;13.60;99.90;;;;;;5012900;28;19936;-73
2022/07/09 06:56:57;;;;;;;;;;;13.60;99.90;;;;;;5013047;28;20340;-73
2022/07/09 06:59:24;;;;;;;;;;;13.60;99.90;;;;;;5013374;28;19909;-73
2022/07/09 07:01:51;;;;;;;;;;;13.50;99.90;;;;;;4995065;28;19910;-74
2022/07/09 07:04:19;;;;;;;;;;;13.50;99.90;;;;;;5012286;28;19921;-73
2022/07/09 07:06:48;;;;;;;;;;;13.50;99.90;;;;;;5012704;28;19918;-74
2022/07/09 07:09:18;;;;;;;;;;;13.40;99.90;;;;;;5012244;28;20390;-74
2022/07/09 07:11:45;;;;;;;;;;;13.40;99.90;;;;;;5012304;28;20021;-74
2022/07/09 07:14:16;;;;;;;;;;;13.40;99.90;;;;;;4994621;28;21253;-73
2022/07/09 07:16:43;;;;;;;;;;;13.30;99.90;;;;;;5013064;28;19917;-74
2022/07/09 07:19:10;;;;;;;;;;;13.30;99.90;;;;;;5014087;28;19972;-74
2022/07/09 07:21:38;;;;;;;;;;;13.20;99.90;;;;;;5014160;28;19915;-73
2022/07/09 07:24:05;;;;;;;;;;;13.20;99.90;;;;;;5014108;28;20024;-73
2022/07/09 07:26:32;;;;;;;;;;;13.10;99.90;;;;;;5014122;28;19916;-72
2022/07/09 07:28:59;;;;;;;;;;;13.10;99.90;;;;;;5013511;28;20352;-72
2022/07/09 07:31:25;;;;;;;;;;;13.10;99.90;;;;;;5014010;28;20367;-72
2022/07/09 07:33:52;;;;;;;;;;;13.10;99.90;;;;;;5014129;28;20359;-73
2022/07/09 07:36:19;;;;;;;;;;;13.10;99.90;;;;;;5014188;28;19963;-72
2022/07/09 07:38:58;;;;;;;;;;;13.10;99.90;;;;;;5014214;28;19913;-73
2022/07/09 07:41:28;;;;;;;;;;;13.00;99.90;;;;;;5014332;28;19910;-73
2022/07/09 07:43:55;;;;;;;;;;;12.90;99.90;;;;;;5014384;28;19910;-72
2022/07/09 07:46:21;;;;;;;;;;;12.90;99.90;;;;;;4996483;28;19920;-73
2022/07/09 07:48:48;;;;;;;;;;;12.80;99.90;;;;;;4994692;28;19921;-73
2022/07/09 07:51:24;;;;;;;;;;;12.80;99.90;;;;;;5012074;28;19910;-73
2022/07/09 07:53:54;;;;;;;;;;;12.70;99.90;;;;;;5011817;28;19955;-73
2022/07/09 07:56:26;;;;;;;;;;;12.70;99.90;;;;;;5011966;28;20083;-73
2022/07/09 07:58:59;;;;;;;;;;;12.60;99.90;;;;;;5011900;28;20447;-73
2022/07/09 08:01:29;;;;;;;;;;;12.50;99.90;;;;;;5011864;28;19933;-73
2022/07/09 08:03:56;;;;;;;;;;;12.50;99.90;;;;;;5011817;28;19913;-73
2022/07/09 08:06:29;;;;;;;;;;;12.40;99.90;;;;;;5009746;28;19920;-74
2022/07/09 08:09:03;;;;;;;;;;;12.40;99.90;;;;;;4991923;28;20445;-73
2022/07/09 08:11:30;;;;;;;;;;;12.30;99.90;;;;;;4992495;28;19922;-74
2022/07/09 08:13:59;;;;;;;;;;;12.40;99.90;;;;;;4991780;28;20012;-73
2022/07/09 08:16:26;;;;;;;;;;;12.40;99.90;;;;;;4992348;28;19910;-74
2022/07/09 08:18:55;;;;;;;;;;;12.50;99.90;;;;;;4993424;28;20383;-74
2022/07/09 08:21:24;;;;;;;;;;;12.50;99.90;;;;;;4992673;28;19997;-73
2022/07/09 08:27:12;;;;;;;;;;;12.50;99.90;;;;;;5001002;28;19916;-73
2022/07/09 08:29:38;;;;;;;;;;;12.40;99.90;;;;;;4991571;28;20016;-73
2022/07/09 08:32:09;;;;;;;;;;;12.30;99.90;;;;;;4991559;28;20012;-73
2022/07/09 08:34:38;;;;;;;;;;;12.30;99.90;;;;;;4991766;28;19920;-73
2022/07/09 08:37:05;;;;;;;;;;;12.20;99.90;;;;;;4990901;28;19917;-72
2022/07/09 08:39:32;;;;;;;;;;;12.30;99.90;;;;;;5006936;28;20276;-73
2022/07/09 08:41:59;;;;;;;;;;;12.30;99.90;;;;;;4995373;28;19910;-73
2022/07/09 08:44:32;;;;;;;;;;;12.30;99.90;;;;;;4995863;28;19964;-73
2022/07/09 08:47:01;;;;;;;;;;;12.30;99.90;;;;;;4995689;28;19916;-72
2022/07/09 08:49:31;;;;;;;;;;;12.30;99.90;;;;;;4995614;28;20415;-73
2022/07/09 08:52:01;;;;;;;;;;;12.30;99.90;;;;;;4995279;28;19909;-73
2022/07/09 08:54:28;;;;;;;;;;;12.20;99.90;;;;;;4995335;28;19917;-73
2022/07/09 08:56:55;;;;;;;;;;;12.30;99.90;;;;;;5010493;28;20226;-73
2022/07/09 08:59:24;;;;;;;;;;;12.30;99.90;;;;;;4995583;28;19929;-72
2022/07/09 09:01:51;;;;;;;;;;;12.20;99.90;;;;;;4995534;28;19909;-73
2022/07/09 09:04:18;;;;;;;;;;;12.20;99.90;;;;;;4995558;28;19921;-73
2022/07/09 09:06:44;;;;;;;;;;;12.20;99.90;;;;;;4996716;28;19917;-73
2022/07/09 09:09:17;;;;;;;;;;;12.10;99.90;;;;;;4996888;28;19922;-73
2022/07/09 09:11:48;;;;;;;;;;;12.10;99.90;;;;;;5012404;28;20279;-74
2022/07/09 09:14:22;;;;;;;;;;;12.10;99.90;;;;;;4997099;28;19914;-73
2022/07/09 09:16:49;;;;;;;;;;;12.00;99.90;;;;;;4997033;28;19922;-73
2022/07/09 09:19:16;;;;;;;;;;;12.00;99.90;;;;;;4996921;28;19917;-74
2022/07/09 09:21:42;;;;;;;;;;;12.00;99.90;;;;;;4996484;28;20411;-74
2022/07/09 09:24:09;;;;;;;;;;;12.00;99.90;;;;;;4996916;28;19956;-73
2022/07/09 09:26:36;;;;;;;;;;;12.00;99.90;;;;;;4996834;28;19910;-74
2022/07/09 09:29:04;;;;;;;;;;;12.00;99.90;;;;;;4996326;28;19925;-73
2022/07/09 09:31:32;;;;;;;;;;;11.90;99.90;;;;;;4996789;28;19976;-73
2022/07/09 09:34:10;;;;;;;;;;;11.90;99.90;;;;;;4996328;28;19960;-74
2022/07/09 09:36:38;;;;;;;;;;;11.90;99.90;;;;;;4996703;28;20260;-73
2022/07/09 09:39:12;;;;;;;;;;;11.90;99.90;;;;;;4996582;28;19910;-73
2022/07/09 09:41:39;;;;;;;;;;;11.80;99.90;;;;;;4996749;28;19910;-73
2022/07/09 09:44:10;;;;;;;;;;;11.80;99.90;;;;;;4979115;28;19917;-73
2022/07/09 09:46:39;;;;;;;;;;;11.80;99.90;;;;;;4996871;28;20295;-73
2022/07/09 09:49:07;;;;;;;;;;;11.80;99.90;;;;;;4996190;28;19924;-73
2022/07/09 09:51:35;;;;;;;;;;;11.80;99.90;;;;;;4996215;28;19910;-73
2022/07/09 09:54:02;;;;;;;;;;;11.80;99.90;;;;;;4996344;28;19917;-73
2022/07/09 09:56:29;;;;;;;;;;;11.80;99.90;;;;;;4996429;28;19916;-73
2022/07/09 09:58:56;;;;;;;;;;;11.80;99.90;;;;;;4996134;28;19917;-74
2022/07/09 10:01:22;;;;;;;;;;;11.80;99.90;;;;;;4996157;28;19917;-72
2022/07/09 10:03:50;;;;;;;;;;;11.70;99.90;;;;;;4996083;28;19968;-74
2022/07/09 10:06:17;;;;;;;;;;;11.70;99.90;;;;;;4996067;28;19910;-72
2022/07/09 10:08:44;;;;;;;;;;;11.70;99.90;;;;;;4994439;28;20238;-72
2022/07/09 10:11:10;;;;;;;;;;;11.60;99.90;;;;;;5001371;28;19921;-74
2022/07/09 10:13:56;;;;;;;;;;;11.60;99.90;;;;;;5013579;28;19979;-74
2022/07/09 10:16:36;;;;;;;;;;;11.50;99.90;;;;;;4996068;28;19920;-74
2022/07/09 10:19:03;;;;;;;;;;;11.50;99.90;;;;;;5013039;28;19916;-74
2022/07/09 10:21:40;;;;;;;;;;;11.50;99.90;;;;;;5012848;28;20276;-72
2022/07/09 10:24:08;;;;;;;;;;;11.50;99.90;;;;;;5013355;28;20391;-72
2022/07/09 10:26:47;;;;;;;;;;;11.50;99.90;;;;;;5013238;28;20012;-73
2022/07/09 10:29:23;;;;;;;;;;;11.50;99.90;;;;;;5012582;28;19921;-73
2022/07/09 10:31:50;;;;;;;;;;;11.40;99.90;;;;;;5013154;28;19996;-74
2022/07/09 10:34:25;;;;;;;;;;;11.40;99.90;;;;;;5013264;28;19909;-74
2022/07/09 10:36:58;;;;;;;;;;;11.30;99.90;;;;;;5013029;28;19910;-72
2022/07/09 10:39:25;;;;;;;;;;;11.30;99.90;;;;;;5013336;28;19910;-72
2022/07/09 10:42:17;;;;;;;;;;;11.30;99.90;;;;;;5013266;28;19992;-72
2022/07/09 10:44:45;;;;;;;;;;;11.20;99.90;;;;;;5013121;28;19913;-73
2022/07/09 10:47:12;;;;;;;;;;;11.20;99.90;;;;;;5012689;28;19920;-73
2022/07/09 10:49:39;;;;;;;;;;;11.20;99.90;;;;;;5012708;28;19921;-73
2022/07/09 10:52:06;;;;;;;;;;;11.10;99.90;;;;;;5013148;28;19914;-73
2022/07/09 10:54:33;;;;;;;;;;;11.20;99.90;;;;;;4995365;28;20282;-73
2022/07/09 10:57:00;;;;;;;;;;;11.10;99.90;;;;;;5012756;28;19914;-73
2022/07/09 10:59:27;;;;;;;;;;;11.10;99.90;;;;;;4995298;28;19916;-73
2022/07/09 11:01:55;;;;;;;;;;;11.10;99.90;;;;;;5012658;28;19936;-74
2022/07/09 11:04:26;;;;;;;;;;;11.10;99.90;;;;;;5012135;28;19921;-73
2022/07/09 11:06:53;;;;;;;;;;;11.20;99.90;;;;;;5012782;28;20020;-73
2022/07/09 11:09:20;;;;;;;;;;;11.20;99.90;;;;;;5012786;28;19917;-73
2022/07/09 11:11:49;;;;;;;;;;;11.20;99.90;;;;;;5013027;28;19909;-73
2022/07/09 11:14:16;;;;;;;;;;;11.10;99.90;;;;;;4994596;28;19909;-74
2022/07/09 11:16:53;;;;;;;;;;;11.10;99.90;;;;;;5012894;28;19920;-73
2022/07/09 11:19:21;;;;;;;;;;;11.10;99.90;;;;;;5012791;28;20351;-73
2022/07/09 11:21:48;;;;;;;;;;;11.00;99.90;;;;;;5012439;28;19914;-73
2022/07/09 11:24:16;;;;;;;;;;;11.00;99.90;;;;;;5012590;28;20283;-74
2022/07/09 11:26:43;;;;;;;;;;;11.10;99.90;;;;;;5012143;28;19910;-73
2022/07/09 11:29:10;;;;;;;;;;;11.10;99.90;;;;;;5011860;28;20019;-72
2022/07/09 11:31:37;;;;;;;;;;;11.10;99.90;;;;;;5012491;28;19948;-73
2022/07/09 11:34:13;;;;;;;;;;;11.10;99.90;;;;;;5012383;28;19914;-73
2022/07/09 11:36:43;;;;;;;;;;;11.00;99.90;;;;;;5012448;28;19920;-73
2022/07/09 11:39:21;;;;;;;;;;;10.90;99.90;;;;;;5012174;28;20393;-73
2022/07/09 11:41:48;;;;;;;;;;;10.90;99.90;;;;;;5011945;28;19909;-74
2022/07/09 11:44:22;;;;;;;;;;;10.80;99.90;;;;;;5012118;28;19988;-73
2022/07/09 11:47:09;;;;;;;;;;;10.90;99.90;;;;;;5012132;28;20344;-72
2022/07/09 11:49:43;;;;;;;;;;;10.70;99.90;;;;;;5011758;28;19924;-73
2022/07/09 11:52:30;;;;;;;;;;;10.60;99.90;;;;;;5012081;28;19968;-72
2022/07/09 11:55:01;;;;;;;;;;;10.60;99.90;;;;;;5011279;28;20003;-73
2022/07/09 11:57:29;;;;;;;;;;;10.60;99.90;;;;;;5011992;28;19975;-74
2022/07/09 11:59:56;;;;;;;;;;;10.70;99.90;;;;;;5011868;28;20003;-73
2022/07/09 12:02:33;;;;;;;;;;;10.60;99.90;;;;;;5011992;28;19999;-73
2022/07/09 12:05:00;;;;;;;;;;;10.60;99.90;;;;;;5011574;28;19975;-74
2022/07/09 12:07:27;;;;;;;;;;;10.70;99.90;;;;;;5011507;28;19910;-73
2022/07/09 12:10:12;;;;;;;;;;;10.70;99.90;;;;;;5011745;28;19920;-74
2022/07/09 12:12:39;;;;;;;;;;;10.70;99.90;;;;;;5011776;28;20007;-73
2022/07/09 12:15:08;;;;;;;;;;;10.60;99.90;;;;;;5025744;28;19910;-73
2022/07/09 12:17:36;;;;;;;;;;;10.70;99.90;;;;;;5011773;28;19914;-73
2022/07/09 12:20:06;;;;;;;;;;;10.70;99.90;;;;;;5011109;28;19909;-72
2022/07/09 12:22:33;;;;;;;;;;;10.70;99.90;;;;;;5011455;28;19910;-72
2022/07/09 12:25:00;;;;;;;;;;;10.70;99.90;;;;;;5011174;28;19913;-72
2022/07/09 12:27:27;;;;;;;;;;;10.70;99.90;;;;;;5011347;28;19913;-73
2022/07/09 12:29:53;;;;;;;;;;;10.70;99.90;;;;;;5011441;28;19914;-73
2022/07/09 12:32:20;;;;;;;;;;;10.70;99.90;;;;;;5011072;28;19924;-73
2022/07/09 12:34:47;;;;;;;;;;;10.70;99.90;;;;;;5011440;28;19941;-73
2022/07/09 12:37:13;;;;;;;;;;;10.70;99.90;;;;;;5011386;28;19987;-73
2022/07/09 12:39:40;;;;;;;;;;;10.60;99.90;;;;;;5011426;28;19921;-73
2022/07/09 12:42:07;;;;;;;;;;;10.60;99.90;;;;;;5011362;28;19910;-72
2022/07/09 12:44:34;;;;;;;;;;;10.50;99.90;;;;;;5011358;28;19995;-72
2022/07/09 12:47:00;;;;;;;;;;;10.60;99.90;;;;;;5010874;28;20012;-73
2022/07/09 12:49:27;;;;;;;;;;;10.60;99.90;;;;;;5011176;28;20350;-72
2022/07/09 12:51:54;;;;;;;;;;;10.60;99.90;;;;;;5011237;28;19909;-72
2022/07/09 12:54:20;;;;;;;;;;;10.50;99.90;;;;;;5011283;28;20292;-73
2022/07/09 12:56:50;;;;;;;;;;;10.40;99.90;;;;;;5011390;28;19913;-73
2022/07/09 12:59:19;;;;;;;;;;;10.40;99.90;;;;;;5010842;28;19941;-73
2022/07/09 13:01:46;;;;;;;;;;;10.40;99.90;;;;;;5011430;28;19976;-72
2022/07/09 13:04:13;;;;;;;;;;;10.30;99.90;;;;;;5011175;28;19925;-72
2022/07/09 13:06:40;;;;;;;;;;;10.30;99.90;;;;;;5011176;28;19968;-73
2022/07/09 13:09:08;;;;;;;;;;;10.30;99.90;;;;;;5010970;28;20016;-73
2022/07/09 13:11:35;;;;;;;;;;;10.30;99.90;;;;;;5010835;28;20271;-73
2022/07/09 13:14:02;;;;;;;;;;;10.30;99.90;;;;;;5011050;28;19909;-73
2022/07/09 13:16:28;;;;;;;;;;;10.40;99.90;;;;;;5011173;28;19909;-73
2022/07/09 13:18:55;;;;;;;;;;;10.40;99.90;;;;;;5010963;28;19920;-72
2022/07/09 13:21:23;;;;;;;;;;;10.40;99.90;;;;;;5010958;28;19909;-72
2022/07/09 13:23:51;;;;;;;;;;;10.30;99.90;;;;;;5010973;28;19921;-73
2022/07/09 13:26:18;;;;;;;;;;;10.30;99.90;;;;;;5011941;28;19914;-73
2022/07/09 13:28:44;;;;;;;;;;;10.20;99.90;;;;;;5014558;28;19972;-73
2022/07/09 13:31:11;;;;;;;;;;;10.20;99.90;;;;;;5014500;28;20261;-73
2022/07/09 13:33:38;;;;;;;;;;;10.20;99.90;;;;;;5014572;28;19914;-72
2022/07/09 13:36:05;;;;;;;;;;;10.20;99.90;;;;;;5014367;28;20386;-73
2022/07/09 13:38:32;;;;;;;;;;;10.20;99.90;;;;;;5014152;28;19917;-73
2022/07/09 13:40:59;;;;;;;;;;;10.20;99.90;;;;;;5014268;28;20375;-73
2022/07/09 13:43:26;;;;;;;;;;;10.20;99.90;;;;;;5014244;28;19909;-73
2022/07/09 13:45:55;;;;;;;;;;;10.20;99.90;;;;;;5014173;28;20402;-73
2022/07/09 13:48:21;;;;;;;;;;;10.10;99.90;;;;;;5014199;28;19917;-73
2022/07/09 13:50:48;;;;;;;;;;;10.10;99.90;;;;;;5014107;28;20430;-72
2022/07/09 13:53:15;;;;;;;;;;;10.10;99.90;;;;;;5014108;28;19917;-72
2022/07/09 13:55:43;;;;;;;;;;;10.10;99.90;;;;;;5014304;28;19913;-72
2022/07/09 13:58:09;;;;;;;;;;;10.10;99.90;;;;;;5014045;28;20686;-73
2022/07/09 14:00:36;;;;;;;;;;;10.10;99.90;;;;;;5014080;28;19916;-72
2022/07/09 14:03:03;;;;;;;;;;;10.10;99.90;;;;;;5013799;28;19910;-72
2022/07/09 14:05:30;;;;;;;;;;;10.10;99.90;;;;;;5013359;28;19921;-72
2022/07/09 14:07:58;;;;;;;;;;;10.10;99.90;;;;;;5013912;28;19918;-72
2022/07/09 14:10:25;;;;;;;;;;;10.10;99.90;;;;;;5013928;28;19909;-72
2022/07/09 14:12:52;;;;;;;;;;;10.10;99.90;;;;;;5013493;28;19918;-72
2022/07/09 14:15:18;;;;;;;;;;;10.10;99.90;;;;;;5013618;28;19909;-72
2022/07/09 14:17:45;;;;;;;;;;;10.10;99.90;;;;;;5013364;28;20324;-72
2022/07/09 14:20:12;;;;;;;;;;;10.10;99.90;;;;;;5013698;28;20329;-72
2022/07/09 14:22:38;;;;;;;;;;;10.10;99.90;;;;;;5013692;28;19909;-73
2022/07/09 14:25:05;;;;;;;;;;;10.10;99.90;;;;;;5013522;28;19952;-73